createdAt,value
2019-04-16T00:02:36.488Z,1.30
2019-04-16T00:05:14.332Z,1.30
2019-04-16T00:07:50.889Z,1.27
2019-04-16T00:10:32.249Z,1.32
2019-04-16T00:13:13.542Z,1.40
2019-04-16T00:15:44.465Z,1.27
2019-04-16T00:18:18.417Z,1.20
2019-04-16T00:21:12.320Z,1.20
2019-04-16T00:24:08.705Z,1.30
2019-04-16T00:26:39.659Z,1.30
2019-04-16T00:29:10.461Z,1.20
2019-04-16T00:31:42.041Z,1.20
2019-04-16T00:34:14.215Z,1.20
2019-04-16T00:36:48.493Z,1.12
2019-04-16T00:39:17.746Z,1.20
2019-04-16T00:41:49.015Z,1.35
2019-04-16T00:44:19.595Z,1.30
2019-04-16T00:46:50.426Z,1.30
2019-04-16T00:49:26.293Z,1.20
2019-04-16T00:51:53.731Z,1.20
2019-04-16T00:54:24.573Z,1.30
2019-04-16T00:56:55.302Z,1.37
2019-04-16T00:59:26.234Z,1.40
2019-04-16T01:01:57.116Z,1.30
2019-04-16T01:04:27.927Z,1.15
2019-04-16T01:06:59.791Z,1.30
2019-04-16T01:09:30.749Z,1.35
2019-04-16T01:12:01.760Z,1.20
2019-04-16T01:14:32.418Z,1.40
2019-04-16T01:17:05.082Z,1.30
2019-04-16T01:19:38.321Z,1.30
2019-04-16T01:22:08.654Z,1.20
2019-04-16T01:24:39.664Z,1.10
2019-04-16T01:27:10.490Z,1.40
2019-04-16T01:29:41.410Z,1.20
2019-04-16T01:32:23.387Z,1.37
2019-04-16T01:35:10.298Z,1.20
2019-04-16T01:38:00.406Z,1.35
2019-04-16T01:40:40.539Z,1.40
2019-04-16T01:43:11.842Z,1.20
2019-04-16T01:45:42.816Z,1.32
2019-04-16T01:48:13.720Z,1.20
2019-04-16T01:50:44.758Z,1.32
2019-04-16T01:53:18.342Z,1.37
2019-04-16T01:55:48.464Z,1.42
2019-04-16T01:58:19.492Z,1.20
2019-04-16T02:00:50.231Z,1.37
2019-04-16T02:03:21.599Z,1.12
2019-04-16T02:05:54.650Z,1.22
2019-04-16T02:08:25.017Z,1.27
2019-04-16T02:10:56.258Z,1.30
2019-04-16T02:13:27.216Z,1.32
2019-04-16T02:15:58.461Z,1.22
2019-04-16T02:18:30.325Z,1.10
2019-04-16T02:21:01.532Z,1.50
2019-04-16T02:23:32.106Z,1.30
2019-04-16T02:26:03.140Z,1.12
2019-04-16T02:28:33.852Z,1.37
2019-04-16T02:31:04.671Z,1.00
2019-04-16T02:33:35.650Z,1.37
2019-04-16T02:36:06.661Z,1.22
2019-04-16T02:38:37.610Z,1.20
2019-04-16T02:41:08.538Z,1.12
2019-04-16T02:43:40.916Z,1.47
2019-04-16T02:46:12.181Z,1.20
2019-04-16T02:48:50.276Z,1.30
2019-04-16T02:51:39.577Z,1.30
2019-04-16T02:54:23.185Z,1.20
2019-04-16T02:57:06.556Z,1.47
2019-04-16T02:59:45.756Z,1.10
2019-04-16T03:02:32.900Z,1.15
2019-04-16T03:05:12.177Z,1.50
2019-04-16T03:07:43.448Z,1.22
2019-04-16T03:10:14.352Z,1.40
2019-04-16T03:12:45.120Z,1.15
2019-04-16T03:15:19.119Z,1.10
2019-04-16T03:17:49.884Z,1.30
2019-04-16T03:20:23.810Z,1.20
2019-04-16T03:22:53.431Z,1.40
2019-04-16T03:25:24.150Z,1.30
2019-04-16T03:27:55.111Z,1.20
2019-04-16T03:30:26.084Z,1.30
2019-04-16T03:32:57.094Z,1.35
2019-04-16T03:35:28.176Z,1.22
2019-04-16T03:38:01.585Z,1.20
2019-04-16T03:40:31.426Z,1.40
2019-04-16T03:43:03.971Z,1.25
2019-04-16T03:45:37.474Z,1.30
2019-04-16T03:48:07.317Z,1.20
2019-04-16T03:50:38.136Z,1.30
2019-04-16T03:53:08.984Z,1.20
2019-04-16T03:55:39.706Z,1.40
2019-04-16T03:58:10.341Z,1.25
2019-04-16T04:00:44.140Z,1.30
2019-04-16T04:03:13.810Z,1.20
2019-04-16T04:05:47.273Z,1.20
2019-04-16T04:08:18.382Z,1.30
2019-04-16T04:10:49.147Z,1.40
2019-04-16T04:13:19.731Z,1.37
2019-04-16T04:15:50.443Z,1.30
2019-04-16T04:18:21.211Z,1.40
2019-04-16T04:20:52.082Z,1.30
2019-04-16T04:23:25.530Z,1.50
2019-04-16T04:25:55.391Z,1.30
2019-04-16T04:28:26.215Z,1.40
2019-04-16T04:30:57.753Z,1.25
2019-04-16T04:33:40.365Z,1.40
2019-04-16T04:36:10.135Z,1.37
2019-04-16T04:38:41.128Z,1.60
2019-04-16T04:41:12.118Z,1.27
2019-04-16T04:43:42.601Z,1.30
2019-04-16T04:46:15.050Z,1.40
2019-04-16T04:48:45.904Z,1.30
2019-04-16T04:51:16.672Z,1.60
2019-04-16T04:53:49.954Z,1.40
2019-04-16T04:56:20.126Z,1.30
2019-04-16T04:58:51.335Z,1.50
2019-04-16T05:01:22.039Z,1.47
2019-04-16T05:04:23.790Z,1.45
2019-04-16T05:06:57.243Z,1.37
2019-04-16T05:09:35.379Z,1.52
2019-04-16T05:12:02.648Z,1.50
2019-04-16T05:14:33.577Z,1.40
2019-04-16T05:17:06.519Z,1.50
2019-04-16T05:19:37.159Z,1.40
2019-04-16T05:22:08.143Z,1.55
2019-04-16T05:24:39.080Z,1.40
2019-04-16T05:27:10.270Z,1.67
2019-04-16T05:29:41.179Z,1.32
2019-04-16T05:32:12.080Z,1.57
2019-04-16T05:34:42.659Z,1.90
2019-04-16T05:37:16.612Z,1.50
2019-04-16T05:39:46.336Z,1.50
2019-04-16T05:42:17.329Z,1.70
2019-04-16T05:44:48.156Z,1.60
2019-04-16T05:47:18.935Z,1.50
2019-04-16T05:49:49.670Z,1.50
2019-04-16T05:52:20.841Z,1.80
2019-04-16T05:55:28.973Z,1.60
2019-04-16T05:57:59.932Z,1.65
2019-04-16T06:00:44.816Z,1.60
2019-04-16T06:03:15.450Z,1.75
2019-04-16T06:05:46.206Z,1.87
2019-04-16T06:08:17.081Z,1.92
2019-04-16T06:10:51.096Z,1.70
2019-04-16T06:13:44.375Z,2.30
2019-04-16T06:16:26.198Z,2.00
2019-04-16T06:19:16.050Z,2.10
2019-04-16T06:21:48.820Z,2.10
2019-04-16T06:24:40.053Z,2.27
2019-04-16T06:27:34.838Z,2.20
2019-04-16T06:30:40.230Z,2.00
2019-04-16T06:33:14.624Z,2.00
2019-04-16T06:36:03.534Z,2.10
2019-04-16T06:38:44.216Z,2.20
2019-04-16T06:41:52.714Z,2.10
2019-04-16T06:44:29.757Z,1.95
2019-04-16T06:47:11.893Z,2.10
2019-04-16T06:50:00.039Z,2.00
2019-04-16T06:53:02.000Z,2.10
2019-04-16T06:55:42.868Z,2.00
2019-04-16T06:58:27.969Z,2.30
2019-04-16T07:01:07.332Z,2.00
2019-04-16T07:03:59.971Z,2.20
2019-04-16T07:06:55.885Z,2.15
2019-04-16T07:09:41.671Z,1.92
2019-04-16T07:12:21.533Z,2.30
2019-04-16T07:14:52.351Z,1.90
2019-04-16T07:17:23.163Z,1.80
2019-04-16T07:19:54.256Z,2.20
2019-04-16T07:22:25.053Z,2.02
2019-04-16T07:24:57.247Z,2.12
2019-04-16T07:27:40.355Z,2.00
2019-04-16T07:30:21.048Z,2.00
2019-04-16T07:33:11.112Z,1.77
2019-04-16T07:36:00.959Z,1.90
2019-04-16T07:38:39.844Z,2.17
2019-04-16T07:41:27.204Z,2.10
2019-04-16T07:44:17.456Z,1.95
2019-04-16T07:47:06.310Z,1.90
2019-04-16T07:50:02.532Z,1.90
2019-04-16T07:52:52.549Z,2.10
2019-04-16T07:55:41.130Z,1.80
2019-04-16T07:58:12.179Z,2.30
2019-04-16T08:00:43.328Z,1.98
2019-04-16T08:03:14.477Z,2.12
2019-04-16T08:05:45.288Z,1.90
2019-04-16T08:08:16.286Z,2.08
2019-04-16T08:10:48.503Z,2.02
2019-04-16T08:13:21.519Z,2.10
2019-04-16T08:15:52.533Z,2.17
2019-04-16T08:18:23.227Z,2.15
2019-04-16T08:21:01.284Z,1.92
2019-04-16T08:23:54.508Z,1.85
2019-04-16T08:26:25.469Z,2.00
2019-04-16T08:28:56.251Z,1.70
2019-04-16T08:31:28.784Z,1.92
2019-04-16T08:34:00.037Z,2.10
2019-04-16T08:36:31.051Z,1.90
2019-04-16T08:39:05.840Z,1.90
2019-04-16T08:41:34.390Z,1.70
2019-04-16T08:44:05.281Z,1.80
2019-04-16T08:46:36.637Z,2.10
2019-04-16T08:49:08.188Z,1.92
2019-04-16T08:51:39.078Z,1.92
2019-04-16T08:54:09.714Z,1.80
2019-04-16T08:56:40.536Z,2.00
2019-04-16T08:59:11.677Z,1.85
2019-04-16T09:01:42.506Z,2.10
2019-04-16T09:04:13.609Z,1.80
2019-04-16T09:06:46.217Z,2.00
2019-04-16T09:09:57.036Z,1.90
2019-04-16T09:12:28.135Z,2.00
2019-04-16T09:14:59.029Z,1.85
2019-04-16T09:17:36.365Z,1.95
2019-04-16T09:20:13.151Z,1.92
2019-04-16T09:22:49.232Z,1.90
2019-04-16T09:25:42.489Z,1.98
2019-04-16T09:28:31.168Z,2.00
2019-04-16T09:31:21.800Z,2.00
2019-04-16T09:33:57.300Z,2.30
2019-04-16T09:36:47.321Z,2.15
2019-04-16T09:39:40.054Z,2.10
2019-04-16T09:42:11.755Z,1.90
2019-04-16T09:44:43.010Z,2.00
2019-04-16T09:47:14.150Z,1.90
2019-04-16T09:49:45.436Z,2.00
2019-04-16T09:52:19.738Z,1.90
2019-04-16T09:54:49.992Z,1.95
2019-04-16T09:57:24.229Z,2.17
2019-04-16T09:59:58.306Z,1.92
2019-04-16T10:02:36.233Z,1.77
2019-04-16T10:05:08.696Z,2.02
2019-04-16T10:07:41.016Z,1.95
2019-04-16T10:10:12.612Z,1.60
2019-04-16T10:12:43.777Z,1.87
2019-04-16T10:15:16.066Z,1.80
2019-04-16T10:17:46.855Z,1.82
2019-04-16T10:20:18.033Z,1.87
2019-04-16T10:22:48.917Z,1.90
2019-04-16T10:25:20.090Z,1.70
2019-04-16T10:28:16.308Z,2.02
2019-04-16T10:30:49.324Z,1.80
2019-04-16T10:33:20.233Z,2.00
2019-04-16T10:35:51.174Z,1.80
2019-04-16T10:38:44.107Z,1.80
2019-04-16T10:41:22.434Z,1.92
2019-04-16T10:44:04.736Z,1.70
2019-04-16T10:47:06.888Z,1.82
2019-04-16T10:49:50.834Z,1.90
2019-04-16T10:52:40.418Z,1.77
2019-04-16T10:55:27.343Z,1.87
2019-04-16T10:58:17.292Z,1.80
2019-04-16T11:01:05.046Z,1.87
2019-04-16T11:03:58.295Z,2.10
2019-04-16T11:06:41.746Z,1.60
2019-04-16T11:09:12.755Z,1.95
2019-04-16T11:11:43.767Z,1.80
2019-04-16T11:14:14.983Z,1.62
2019-04-16T11:16:47.960Z,1.57
2019-04-16T11:19:19.108Z,1.80
2019-04-16T11:21:49.852Z,1.72
2019-04-16T11:24:20.736Z,1.90
2019-04-16T11:26:51.548Z,1.80
2019-04-16T11:29:22.364Z,1.50
2019-04-16T11:31:53.126Z,1.70
2019-04-16T11:34:24.065Z,1.92
2019-04-16T11:36:58.188Z,1.80
2019-04-16T11:39:27.246Z,1.87
2019-04-16T11:41:59.350Z,1.70
2019-04-16T11:44:30.236Z,1.85
2019-04-16T11:47:01.071Z,1.60
2019-04-16T11:49:31.817Z,1.70
2019-04-16T11:52:02.903Z,1.70
2019-04-16T11:54:33.806Z,1.85
2019-04-16T11:57:04.898Z,1.70
2019-04-16T11:59:38.200Z,1.70
2019-04-16T12:02:20.161Z,1.65
2019-04-16T12:05:13.198Z,1.70
2019-04-16T12:07:52.043Z,1.50
2019-04-16T12:10:40.580Z,1.70
2019-04-16T12:13:30.216Z,1.70
2019-04-16T12:16:25.904Z,1.60
2019-04-16T12:19:15.742Z,1.70
2019-04-16T12:22:17.817Z,1.70
2019-04-16T12:25:13.741Z,1.80
2019-04-16T12:28:06.521Z,1.50
2019-04-16T12:30:55.217Z,1.70
2019-04-16T12:33:36.454Z,1.60
2019-04-16T12:36:44.630Z,1.62
2019-04-16T12:39:46.431Z,1.50
2019-04-16T12:42:24.530Z,1.75
2019-04-16T12:45:12.179Z,1.60
2019-04-16T12:47:50.143Z,1.50
2019-04-16T12:50:51.926Z,1.90
2019-04-16T12:53:41.919Z,1.70
2019-04-16T12:56:41.152Z,1.98
2019-04-16T12:59:16.539Z,1.70
2019-04-16T13:02:13.931Z,1.60
2019-04-16T13:05:06.967Z,1.90
2019-04-16T13:08:00.461Z,1.62
2019-04-16T13:10:41.814Z,1.77
2019-04-16T13:13:30.277Z,1.72
2019-04-16T13:16:23.731Z,1.80
2019-04-16T13:19:22.305Z,1.77
2019-04-16T13:21:59.775Z,1.60
2019-04-16T13:24:41.417Z,1.60
2019-04-16T13:27:29.752Z,1.50
2019-04-16T13:30:01.861Z,1.47
2019-04-16T13:32:33.200Z,1.62
2019-04-16T13:35:04.159Z,1.32
2019-04-16T13:37:37.889Z,1.57
2019-04-16T13:40:11.829Z,1.40
2019-04-16T13:42:42.761Z,1.50
2019-04-16T13:45:27.647Z,1.47
2019-04-16T13:48:13.893Z,1.60
2019-04-16T13:50:40.496Z,1.40
2019-04-16T13:53:22.950Z,1.47
2019-04-16T13:56:18.698Z,1.60
2019-04-16T13:59:15.053Z,1.60
2019-04-16T14:01:50.849Z,1.60
2019-04-16T14:04:21.547Z,1.40
2019-04-16T14:06:52.400Z,1.50
2019-04-16T14:09:23.250Z,1.60
2019-04-16T14:11:53.972Z,1.60
2019-04-16T14:14:25.386Z,1.32
2019-04-16T14:16:56.447Z,1.60
2019-04-16T14:19:27.463Z,1.60
2019-04-16T14:21:58.395Z,1.40
2019-04-16T14:24:29.277Z,1.67
2019-04-16T14:27:00.513Z,1.50
2019-04-16T14:29:31.561Z,1.62
2019-04-16T14:32:02.736Z,1.35
2019-04-16T14:34:57.259Z,1.60
2019-04-16T14:37:28.004Z,1.40
2019-04-16T14:40:21.585Z,1.70
2019-04-16T14:42:57.474Z,1.50
2019-04-16T14:45:43.558Z,1.50
2019-04-16T14:48:08.616Z,1.40
2019-04-16T14:50:38.627Z,1.67
2019-04-16T14:53:09.426Z,1.40
2019-04-16T14:55:59.728Z,1.50
2019-04-16T14:58:41.578Z,1.60
2019-04-16T15:01:34.000Z,1.40
2019-04-16T15:04:27.267Z,1.50
2019-04-16T15:07:36.985Z,1.50
2019-04-16T15:10:36.046Z,1.35
2019-04-16T15:13:15.877Z,1.35
2019-04-16T15:16:05.592Z,1.30
2019-04-16T15:18:44.494Z,1.50
2019-04-16T15:21:34.046Z,1.37
2019-04-16T15:24:35.644Z,1.40
2019-04-16T15:27:21.394Z,1.60
2019-04-16T15:30:17.322Z,1.60
2019-04-16T15:33:10.988Z,1.40
2019-04-16T15:35:46.718Z,1.55
2019-04-16T15:38:29.505Z,1.60
2019-04-16T15:41:13.179Z,1.40
2019-04-16T15:44:05.543Z,1.50
2019-04-16T15:46:58.355Z,1.50
2019-04-16T15:49:49.383Z,1.40
2019-04-16T15:52:55.831Z,1.30
2019-04-16T15:55:49.231Z,1.35
2019-04-16T15:58:32.293Z,1.40
2019-04-16T16:01:24.613Z,1.32
2019-04-16T16:04:17.454Z,1.32
2019-04-16T16:07:08.172Z,1.40
2019-04-16T16:10:13.706Z,1.30
2019-04-16T16:12:45.299Z,1.47
2019-04-16T16:15:16.281Z,1.30
2019-04-16T16:17:47.229Z,1.47
2019-04-16T16:20:18.329Z,1.40
2019-04-16T16:22:49.124Z,1.35
2019-04-16T16:25:20.199Z,1.45
2019-04-16T16:27:51.340Z,1.60
2019-04-16T16:30:22.180Z,1.60
2019-04-16T16:32:52.820Z,1.45
2019-04-16T16:35:23.750Z,1.22
2019-04-16T16:37:54.418Z,1.27
2019-04-16T16:40:25.210Z,1.50
2019-04-16T16:42:56.318Z,1.50
2019-04-16T16:45:43.242Z,1.45
2019-04-16T16:48:13.897Z,1.57
2019-04-16T16:50:44.826Z,1.42
2019-04-16T16:53:40.857Z,1.40
2019-04-16T16:56:25.435Z,1.37
2019-04-16T16:59:00.973Z,1.32
2019-04-16T17:01:54.548Z,1.50
2019-04-16T17:04:38.466Z,1.45
2019-04-16T17:07:09.395Z,1.40
2019-04-16T17:09:40.390Z,1.45
2019-04-16T17:12:11.224Z,1.50
2019-04-16T17:14:42.223Z,1.20
2019-04-16T17:17:15.144Z,1.55
2019-04-16T17:19:45.496Z,1.47
2019-04-16T17:22:17.406Z,1.40
2019-04-16T17:24:48.876Z,1.45
2019-04-16T17:27:19.880Z,1.52
2019-04-16T17:29:50.966Z,1.20
2019-04-16T17:32:21.768Z,1.50
2019-04-16T17:34:52.616Z,1.37
2019-04-16T17:37:27.818Z,1.42
2019-04-16T17:39:58.877Z,1.40
2019-04-16T17:42:39.236Z,1.45
2019-04-16T17:45:31.883Z,1.32
2019-04-16T17:48:18.075Z,1.50
2019-04-16T17:51:13.723Z,1.40
2019-04-16T17:53:54.987Z,1.40
2019-04-16T17:56:47.705Z,1.47
2019-04-16T17:59:29.064Z,1.40
2019-04-16T18:02:34.995Z,1.30
2019-04-16T18:05:15.564Z,1.40
2019-04-16T18:08:04.406Z,1.37
2019-04-16T18:11:10.692Z,1.55
2019-04-16T18:13:55.407Z,1.42
2019-04-16T18:16:45.376Z,1.40
2019-04-16T18:19:34.269Z,1.22
2019-04-16T18:22:16.084Z,1.42
2019-04-16T18:25:11.961Z,1.40
2019-04-16T18:27:50.422Z,1.30
2019-04-16T18:30:49.111Z,1.50
2019-04-16T18:33:41.677Z,1.40
2019-04-16T18:36:24.658Z,1.25
2019-04-16T18:39:05.952Z,1.40
2019-04-16T18:42:08.963Z,1.35
2019-04-16T18:44:57.499Z,1.40
2019-04-16T18:47:34.074Z,1.40
2019-04-16T18:50:07.693Z,1.32
2019-04-16T18:52:38.459Z,1.50
2019-04-16T18:55:09.653Z,1.57
2019-04-16T18:57:40.553Z,1.35
2019-04-16T19:00:28.673Z,1.40
2019-04-16T19:03:00.955Z,1.50
2019-04-16T19:05:31.852Z,1.32
2019-04-16T19:08:02.707Z,1.50
2019-04-16T19:10:33.347Z,1.40
2019-04-16T19:13:09.683Z,1.60
2019-04-16T19:15:36.799Z,1.45
2019-04-16T19:18:18.880Z,1.52
2019-04-16T19:20:40.459Z,1.20
2019-04-16T19:23:11.564Z,1.50
2019-04-16T19:25:42.456Z,1.50
2019-04-16T19:28:13.176Z,1.37
2019-04-16T19:30:43.938Z,1.45
2019-04-16T19:33:14.797Z,1.40
2019-04-16T19:35:45.870Z,1.20
2019-04-16T19:38:18.383Z,1.40
2019-04-16T19:40:50.905Z,1.20
2019-04-16T19:43:21.931Z,1.50
2019-04-16T19:45:52.904Z,1.50
2019-04-16T19:48:35.501Z,1.67
2019-04-16T19:50:56.468Z,1.27
2019-04-16T19:53:27.439Z,1.47
2019-04-16T19:55:58.543Z,1.50
2019-04-16T19:58:29.450Z,1.37
2019-04-16T20:01:00.393Z,1.60
2019-04-16T20:03:31.699Z,1.45
2019-04-16T20:06:02.658Z,1.57
2019-04-16T20:08:36.786Z,1.30
2019-04-16T20:11:06.270Z,1.60
2019-04-16T20:13:37.299Z,1.67
2019-04-16T20:16:08.388Z,1.40
2019-04-16T20:18:50.791Z,1.40
2019-04-16T20:21:12.060Z,1.30
2019-04-16T20:23:42.948Z,1.47
2019-04-16T20:26:13.757Z,1.50
2019-04-16T20:28:45.338Z,1.50
2019-04-16T20:31:17.052Z,1.55
2019-04-16T20:33:47.651Z,1.20
2019-04-16T20:36:22.475Z,1.40
2019-04-16T20:38:53.904Z,1.67
2019-04-16T20:41:25.426Z,1.60
2019-04-16T20:43:57.795Z,1.50
2019-04-16T20:46:29.275Z,1.45
2019-04-16T20:49:09.024Z,1.52
2019-04-16T20:51:33.653Z,1.55
2019-04-16T20:54:04.556Z,1.47
2019-04-16T20:56:35.460Z,1.30
2019-04-16T20:59:06.432Z,1.37
2019-04-16T21:01:37.883Z,1.35
2019-04-16T21:04:08.677Z,4.03
2019-04-16T21:06:41.876Z,1.67
2019-04-16T21:09:12.315Z,1.50
2019-04-16T21:11:43.046Z,1.50
2019-04-16T21:14:13.972Z,1.60
2019-04-16T21:16:45.012Z,1.60
2019-04-16T21:19:23.189Z,1.45
2019-04-16T21:21:48.642Z,1.75
2019-04-16T21:24:19.204Z,1.72
2019-04-16T21:26:51.160Z,1.70
2019-04-16T21:29:27.170Z,1.65
2019-04-16T21:32:01.765Z,1.70
2019-04-16T21:34:36.533Z,1.50
2019-04-16T21:37:29.789Z,1.62
2019-04-16T21:40:02.141Z,1.40
2019-04-16T21:42:35.046Z,1.40
2019-04-16T21:45:06.447Z,1.42
2019-04-16T21:47:37.600Z,1.45
2019-04-16T21:50:16.048Z,1.77
2019-04-16T21:52:45.165Z,1.40
2019-04-16T21:55:17.920Z,1.50
2019-04-16T21:57:51.291Z,1.40
2019-04-16T22:00:59.790Z,1.40
2019-04-16T22:03:32.194Z,1.32
2019-04-16T22:06:07.811Z,1.50
2019-04-16T22:08:40.799Z,1.50
2019-04-16T22:11:12.681Z,1.20
2019-04-16T22:13:44.381Z,1.40
2019-04-16T22:16:16.169Z,1.40
2019-04-16T22:18:47.761Z,1.55
2019-04-16T22:21:19.185Z,1.50
2019-04-16T22:23:51.127Z,1.30
2019-04-16T22:26:22.290Z,1.50
2019-04-16T22:28:53.255Z,1.62
2019-04-16T22:31:24.917Z,1.37
2019-04-16T22:33:56.221Z,1.40
2019-04-16T22:36:27.242Z,1.45
2019-04-16T22:39:07.431Z,1.40
2019-04-16T22:42:03.444Z,1.30
2019-04-16T22:44:51.775Z,1.50
2019-04-16T22:47:26.793Z,1.60
2019-04-16T22:50:13.913Z,1.40
2019-04-16T22:52:30.483Z,1.40
2019-04-16T22:55:01.209Z,1.40
2019-04-16T22:57:32.224Z,1.47
2019-04-16T23:00:03.554Z,1.40
2019-04-16T23:02:34.309Z,1.35
2019-04-16T23:05:05.009Z,1.40
2019-04-16T23:07:36.547Z,1.32
2019-04-16T23:10:07.502Z,1.40
2019-04-16T23:12:38.366Z,1.25
2019-04-16T23:15:10.789Z,1.20
2019-04-16T23:17:42.768Z,1.30
2019-04-16T23:20:28.514Z,1.30
2019-04-16T23:22:47.684Z,1.20
2019-04-16T23:25:19.720Z,1.30
2019-04-16T23:27:50.644Z,1.40
2019-04-16T23:30:21.456Z,1.30
2019-04-16T23:32:52.535Z,1.37
2019-04-16T23:35:25.014Z,1.50
2019-04-16T23:37:59.306Z,1.35
2019-04-16T23:40:28.429Z,1.40
2019-04-16T23:43:18.779Z,2.47
2019-04-16T23:46:13.380Z,1.70
2019-04-16T23:48:57.154Z,1.60
2019-04-16T23:51:34.258Z,1.60
2019-04-16T23:54:17.872Z,1.42
2019-04-16T23:56:53.903Z,1.50
2019-04-16T23:59:59.039Z,1.50
